Albelo Primero — ECMU — position and weather

sailwx.info

Track history (hours):
 
Tides and Currents Weather Stations Pressure Air Temp Water Temp Dewpoint Dewpoint Depression Visibility Wind Speed Wind Dir Waves Ship Positions

Albelo Primero

Last reported at 2017-Jun-24 21:40 UTC. Time now 2017-Jun-25 09:01 UTC.
Position N 50°41' W 010°07'.

Length 32 m; draft 3.5 m.

Type: Fishing. MMSI: 225360000.

Date/timePositionNaut miles runAvg speedWind from/ knotsBaromVisibWave heightAir tempDewpointWater temp
2017-Jun-24 21:40N 50°41' W 010°07'5 1.5
2017-Jun-24 18:27N 50°45' W 010°05'1 1.3
2017-Jun-24 17:54N 50°46' W 010°05'1 1.4
2017-Jun-24 17:31N 50°46' W 010°05'1 1.4
2017-Jun-24 16:59N 50°47' W 010°06'1 1.4
2017-Jun-24 16:30N 50°48' W 010°06'1 1.3
2017-Jun-24 15:59N 50°48' W 010°06'1 1.4
2017-Jun-24 15:29N 50°49' W 010°07'1 1.4
2017-Jun-24 14:35N 50°50' W 010°07'0 1.1
2017-Jun-24 14:25N 50°50' W 010°07'1 1.3
2017-Jun-24 13:22N 50°52' W 010°08'1 1.3
2017-Jun-24 12:51N 50°52' W 010°08'4 1.2
2017-Jun-24 09:43N 50°56' W 010°07'3 1.3
2017-Jun-24 07:34N 50°56' W 010°03'0 0.2
2017-Jun-24 07:00N 50°56' W 010°03'5 0.4
2017-Jun-23 16:13N 50°52' W 009°58'1 1.5
2017-Jun-23 15:33N 50°53' W 009°58'0 1.4
2017-Jun-23 15:30N 50°53' W 009°58'18 1.0
2017-Jun-22 21:19N 50°48' W 009°31'3 1.5
2017-Jun-22 19:18N 50°51' W 009°30'1 1.4
2017-Jun-22 18:24N 50°52' W 009°30'1 1.4
2017-Jun-22 17:50N 50°53' W 009°30'1 1.4
2017-Jun-22 17:23N 50°53' W 009°30'1 1.4
2017-Jun-22 16:59N 50°54' W 009°30'1 1.2
2017-Jun-22 16:23N 50°54' W 009°30'1 1.3
2017-Jun-22 15:56N 50°55' W 009°30'1 1.3
2017-Jun-22 15:30N 50°56' W 009°30'1 1.4
2017-Jun-22 14:59N 50°56' W 009°30'1 1.2
2017-Jun-22 14:27N 50°57' W 009°30'1 1.3
2017-Jun-22 13:28N 50°58' W 009°31'1 1.3
2017-Jun-22 12:50N 50°59' W 009°31'1 1.4
2017-Jun-22 12:25N 50°59' W 009°32'1 1.3
2017-Jun-22 11:58N 50°60' W 009°32'1 1.3
2017-Jun-22 11:30N 51°01' W 009°32'1 1.3
2017-Jun-22 11:00N 51°01' W 009°32'1 1.3
2017-Jun-22 10:29N 51°02' W 009°32'1 1.2
2017-Jun-22 10:01N 51°02' W 009°31'0 0.8
2017-Jun-22 09:29N 51°03' W 009°31'0 0.1
2017-Jun-22 08:40N 51°03' W 009°31'1 5.0
2017-Jun-22 08:30N 51°02' W 009°30'3 5.0
2017-Jun-22 07:56N 50°60' W 009°27'0 0.8
2017-Jun-22 07:30N 50°60' W 009°27'1 0.9
2017-Jun-22 06:56N 51°00' W 009°27'1 0.9
2017-Jun-22 05:35N 51°02' W 009°28'0 1.1
2017-Jun-22 05:30N 51°02' W 009°28'1 1.0
2017-Jun-22 05:00N 51°02' W 009°29'1 1.1
2017-Jun-22 04:29N 51°03' W 009°29'1 1.1
2017-Jun-22 04:00N 51°03' W 009°30'1 1.2
2017-Jun-22 03:30N 51°03' W 009°30'17 3.8
2017-Jun-21 22:58N 50°50' W 009°49'1 1.4
2017-Jun-21 22:12N 50°49' W 009°49'0 1.4
2017-Jun-21 21:51N 50°49' W 009°49'1 1.4
2017-Jun-21 20:50N 50°48' W 009°48'1 1.4
2017-Jun-21 19:56N 50°46' W 009°48'1 1.5
2017-Jun-21 19:28N 50°46' W 009°47'1 1.4
2017-Jun-21 19:00N 50°45' W 009°47'7 6.5
2017-Jun-21 17:54N 50°52' W 009°48'1 1.7
2017-Jun-21 17:08N 50°54' W 009°48'1 1.3
2017-Jun-21 16:44N 50°54' W 009°48'0 1.2
2017-Jun-21 16:30N 50°54' W 009°47'2 1.3
2017-Jun-21 15:11N 50°56' W 009°47'0 1.3
2017-Jun-21 15:01N 50°56' W 009°47'1 1.4
2017-Jun-21 14:27N 50°57' W 009°47'5 1.4
2017-Jun-21 10:26N 51°02' W 009°47'1 1.3
2017-Jun-21 10:00N 51°03' W 009°47'0 0.9
2017-Jun-21 09:28N 51°03' W 009°46'1 2.2
2017-Jun-21 08:50N 51°04' W 009°49'0 0.3
2017-Jun-21 08:30N 51°04' W 009°48'0 0.3
2017-Jun-21 08:00N 51°04' W 009°48'0 0.3
2017-Jun-21 07:29N 51°04' W 009°48'0 0.7
2017-Jun-21 06:58N 51°04' W 009°48'0 0.8
2017-Jun-21 06:27N 51°04' W 009°47'17 6.4
2017-Jun-21 03:52N 50°47' W 009°47'18 4.8
2017-Jun-21 00:13N 51°04' W 009°46'4 2.1
2017-Jun-20 22:10N 51°00' W 009°49'0 0.3
2017-Jun-20 21:59N 51°00' W 009°48'0 0.3
2017-Jun-20 21:19N 51°00' W 009°48'8 3.0
2017-Jun-20 18:41N 51°08' W 009°48'1 7.2
2017-Jun-20 18:30N 51°10' W 009°49'4 7.3
2017-Jun-20 17:58N 51°14' W 009°50'3 7.4
2017-Jun-20 17:30N 51°17' W 009°51'4 7.4
2017-Jun-20 16:59N 51°21' W 009°52'4 7.6
2017-Jun-20 16:30N 51°24' W 009°53'4 7.4
2017-Jun-20 16:00N 51°28' W 009°54'4 7.4
2017-Jun-20 15:30N 51°32' W 009°55'4 7.8
2017-Jun-20 14:57N 51°36' W 009°56'3 3.1
2017-Jun-20 13:55N 51°39' W 009°54'0 0.0
2017-Jun-20 13:15N 51°39' W 009°54'0 0.0
2017-Jun-20 12:59N 51°39' W 009°54'0 0.0
2017-Jun-20 12:28N 51°39' W 009°54'0 0.0
2017-Jun-20 12:00N 51°39' W 009°54'0 0.0
2017-Jun-20 11:30N 51°39' W 009°54'0 0.0
2017-Jun-20 11:00N 51°39' W 009°54'0 0.0
2017-Jun-20 10:30N 51°39' W 009°54'0 0.0
2017-Jun-20 09:46N 51°39' W 009°54'0 0.0
2017-Jun-20 09:24N 51°39' W 009°54'0 0.0
2017-Jun-20 09:00N 51°39' W 009°54'0 0.0
2017-Jun-20 08:24N 51°39' W 009°54'0 0.0
2017-Jun-20 08:00N 51°39' W 009°54'0 0.0
2017-Jun-20 07:30N 51°39' W 009°54'0 0.0
2017-Jun-20 06:58N 51°39' W 009°54'0 0.0
2017-Jun-20 06:26N 51°39' W 009°54'0 0.0
2017-Jun-20 06:00N 51°39' W 009°54'0 0.0
2017-Jun-20 05:28N 51°39' W 009°54'0 0.2
2017-Jun-20 04:59N 51°39' W 009°54'2 3.2
2017-Jun-20 04:22N 51°37' W 009°55'3 7.2
2017-Jun-20 04:00N 51°35' W 009°56'5 9.7
2017-Jun-20 03:30N 51°30' W 009°56'5 9.7
2017-Jun-20 03:00N 51°25' W 009°56'510.0
2017-Jun-20 02:30N 51°20' W 009°56'5 9.9
2017-Jun-20 02:00N 51°15' W 009°56'510.0
2017-Jun-20 01:29N 51°10' W 009°57'510.2
2017-Jun-20 00:56N 51°04' W 009°56'6 7.0
2017-Jun-20 00:02N 50°58' W 009°56'0 1.5
2017-Jun-20 00:00N 50°58' W 009°56'12 1.4
2017-Jun-19 15:08N 50°45' W 009°57'7 1.3
2017-Jun-19 09:55N 50°39' W 009°56'0 0.6
2017-Jun-19 09:22N 50°38' W 009°56'15 2.2
2017-Jun-19 02:20N 50°53' W 009°56'3 8.3
2017-Jun-19 02:00N 50°56' W 009°56'2 4.1
2017-Jun-19 01:31N 50°58' W 009°56'0 0.3
2017-Jun-19 00:58N 50°58' W 009°56'1 3.1
2017-Jun-19 00:30N 50°59' W 009°55'0 0.6
2017-Jun-19 00:00N 50°60' W 009°55'0 0.8
2017-Jun-18 23:31N 50°59' W 009°55'1 1.4
2017-Jun-18 23:00N 50°59' W 009°55'1 1.5
2017-Jun-18 22:30N 50°58' W 009°55'1 1.4
2017-Jun-18 22:01N 50°57' W 009°55'1 1.4
2017-Jun-18 21:30N 50°57' W 009°55'1 1.3
2017-Jun-18 21:00N 50°56' W 009°56'1 1.4
2017-Jun-18 20:31N 50°55' W 009°56'1 1.4
2017-Jun-18 20:01N 50°54' W 009°56'1 1.4
2017-Jun-18 19:30N 50°54' W 009°56'1 1.4
2017-Jun-18 19:00N 50°53' W 009°56'1 1.3
2017-Jun-18 18:31N 50°52' W 009°56'1 1.3
2017-Jun-18 18:00N 50°52' W 009°56'1 1.3
2017-Jun-18 17:30N 50°51' W 009°56'1 1.3
2017-Jun-18 17:00N 50°50' W 009°56'1 1.3
2017-Jun-18 16:30N 50°50' W 009°56'1 1.3
2017-Jun-18 16:00N 50°49' W 009°56'1 1.4
2017-Jun-18 15:30N 50°49' W 009°56'1 1.3
2017-Jun-18 15:00N 50°48' W 009°56'1 1.4
2017-Jun-18 14:00N 50°47' W 009°56'1 1.2
2017-Jun-18 13:31N 50°46' W 009°56'1 1.4
2017-Jun-18 13:00N 50°45' W 009°56'1 1.4
2017-Jun-18 12:30N 50°45' W 009°56'1 1.3
2017-Jun-18 12:00N 50°44' W 009°56'1 1.3
2017-Jun-18 11:31N 50°43' W 009°56'1 1.3
2017-Jun-18 11:01N 50°43' W 009°56'1 1.2
2017-Jun-18 10:31N 50°42' W 009°56'1 1.2
2017-Jun-18 10:01N 50°41' W 009°55'0 0.8
2017-Jun-18 09:31N 50°42' W 009°55'1 1.8
2017-Jun-18 08:54N 50°43' W 009°55'0 0.8
2017-Jun-18 08:30N 50°43' W 009°55'0 0.8
2017-Jun-18 07:59N 50°42' W 009°56'1 0.7
2017-Jun-18 07:09N 50°42' W 009°56'0 0.8
2017-Jun-18 07:00N 50°42' W 009°56'0 0.7
2017-Jun-18 06:30N 50°41' W 009°56'0 0.7
2017-Jun-18 05:58N 50°41' W 009°56'0 0.5
2017-Jun-18 05:30N 50°41' W 009°56'0 0.7
2017-Jun-18 05:00N 50°41' W 009°56'0 0.6
2017-Jun-18 04:30N 50°40' W 009°56'1 1.7
2017-Jun-18 04:00N 50°41' W 009°56'5 8.5
2017-Jun-18 03:24N 50°46' W 009°56'9 9.1
2017-Jun-18 02:24N 50°55' W 009°56'5 9.2
2017-Jun-18 01:53N 51°00' W 009°56'0 0.3
2017-Jun-18 01:30N 51°00' W 009°56'9 3.9
2017-Jun-17 23:16N 50°55' W 010°06'0 0.9
2017-Jun-17 23:01N 50°54' W 010°06'1 1.1
2017-Jun-17 22:28N 50°54' W 010°06'1 1.3
2017-Jun-17 22:00N 50°53' W 010°06'1 1.1
2017-Jun-17 21:30N 50°53' W 010°06'1 1.4
2017-Jun-17 21:00N 50°52' W 010°06'1 1.3
2017-Jun-17 20:30N 50°51' W 010°06'1 1.3
2017-Jun-17 19:56N 50°51' W 010°06'1 1.3
2017-Jun-17 19:30N 50°50' W 010°06'1 1.4
2017-Jun-17 18:55N 50°49' W 010°07'1 1.2
2017-Jun-17 18:14N 50°48' W 010°07'0 1.3
2017-Jun-17 17:54N 50°48' W 010°07'1 1.3
2017-Jun-17 17:30N 50°48' W 010°07'1 1.3
2017-Jun-17 16:58N 50°47' W 010°07'1 1.3
2017-Jun-17 16:30N 50°46' W 010°06'1 1.3
2017-Jun-17 15:54N 50°45' W 010°07'1 1.3
2017-Jun-17 15:30N 50°45' W 010°07'1 1.4
2017-Jun-17 15:01N 50°44' W 010°07'1 1.4
2017-Jun-17 14:15N 50°43' W 010°06'1 1.4
2017-Jun-17 13:17N 50°42' W 010°06'0 1.4
2017-Jun-17 13:00N 50°41' W 010°06'1 1.4
2017-Jun-17 12:27N 50°41' W 010°06'1 1.4
2017-Jun-17 11:57N 50°40' W 010°06'1 1.3
2017-Jun-17 11:30N 50°39' W 010°06'1 1.4
2017-Jun-17 11:00N 50°39' W 010°06'1 1.2
2017-Jun-17 10:29N 50°38' W 010°06'1 1.2
2017-Jun-17 09:51N 50°37' W 010°06'1 1.2
2017-Jun-17 09:26N 50°37' W 010°06'0 0.4
2017-Jun-17 08:58N 50°37' W 010°06'3 6.5
2017-Jun-17 08:29N 50°37' W 010°01'0 0.8
2017-Jun-17 08:00N 50°37' W 010°01'0 1.0
2017-Jun-17 07:30N 50°37' W 010°02'1 1.0
2017-Jun-17 07:00N 50°37' W 010°03'1 1.0
2017-Jun-17 06:28N 50°37' W 010°04'1 0.9
2017-Jun-17 05:53N 50°37' W 010°04'0 0.7
2017-Jun-17 05:25N 50°36' W 010°05'0 0.6
2017-Jun-17 05:00N 50°36' W 010°05'15 5.7
2017-Jun-17 02:25N 50°51' W 010°06'4 8.5
2017-Jun-17 01:57N 50°55' W 010°07'1 2.5
2017-Jun-17 01:30N 50°54' W 010°07'4 7.7
2017-Jun-17 01:00N 50°50' W 010°05'4 7.7
2017-Jun-17 00:30N 50°47' W 010°03'4 7.6
2017-Jun-17 00:00N 50°43' W 010°00'4 7.4
2017-Jun-16 23:30N 50°40' W 009°58'1 1.1
2017-Jun-16 23:00N 50°39' W 009°57'1 1.4
2017-Jun-16 22:17N 50°40' W 009°57'0 1.4
2017-Jun-16 21:58N 50°41' W 009°57'1 1.4
2017-Jun-16 21:13N 50°42' W 009°57'0 1.4
2017-Jun-16 21:01N 50°42' W 009°57'1 1.5
2017-Jun-16 20:29N 50°43' W 009°57'1 1.4
2017-Jun-16 20:00N 50°44' W 009°57'1 1.3
2017-Jun-16 19:27N 50°44' W 009°58'1 1.2
2017-Jun-16 18:33N 50°46' W 009°58'0 1.5
2017-Jun-16 18:30N 50°46' W 009°58'2 1.2
2017-Jun-16 17:15N 50°47' W 009°58'0 1.3
2017-Jun-16 17:00N 50°47' W 009°58'1 1.1
2017-Jun-16 15:56N 50°49' W 009°58'1 1.4
2017-Jun-16 15:20N 50°49' W 009°58'1 1.4
2017-Jun-16 14:51N 50°50' W 009°58'1 1.3
2017-Jun-16 13:52N 50°51' W 009°58'1 1.4
2017-Jun-16 13:29N 50°52' W 009°58'1 1.3
2017-Jun-16 12:57N 50°53' W 009°58'1 1.4
2017-Jun-16 12:30N 50°53' W 009°58'1 1.4
2017-Jun-16 11:52N 50°54' W 009°58'0 1.3
2017-Jun-16 11:30N 50°55' W 009°58'1 1.3
2017-Jun-16 10:54N 50°55' W 009°58'1 1.3
2017-Jun-16 10:28N 50°56' W 009°58'1 1.2
2017-Jun-16 09:51N 50°57' W 009°57'1 1.1
2017-Jun-16 09:13N 50°57' W 009°57'0 0.6
2017-Jun-16 08:46N 50°58' W 009°57'2 6.3
2017-Jun-16 08:30N 50°58' W 009°55'1 1.5
2017-Jun-16 07:59N 50°59' W 009°53'0 0.9
2017-Jun-16 07:31N 50°58' W 009°54'1 0.9
2017-Jun-16 06:54N 50°58' W 009°55'1 0.8
2017-Jun-16 06:06N 50°58' W 009°56'0 0.8
2017-Jun-16 06:00N 50°58' W 009°56'1 0.5
2017-Jun-16 03:59N 50°58' W 009°58'19 9.3
2017-Jun-16 01:57N 50°39' W 009°58'0 0.1
2017-Jun-16 01:30N 50°39' W 009°58'5 5.2
2017-Jun-16 00:33N 50°39' W 009°50'3 6.3
2017-Jun-16 00:04N 50°40' W 009°45'1 6.6
2017-Jun-15 23:57N 50°40' W 009°44'2 5.4
2017-Jun-15 23:30N 50°42' W 009°41'3 4.9
2017-Jun-15 22:50N 50°43' W 009°37'0 1.2
2017-Jun-15 22:30N 50°44' W 009°36'1 1.4
2017-Jun-15 22:00N 50°44' W 009°36'1 1.4
2017-Jun-15 21:21N 50°45' W 009°36'1 1.5
2017-Jun-15 20:49N 50°46' W 009°36'0 1.5
2017-Jun-15 20:30N 50°47' W 009°36'1 1.4
2017-Jun-15 20:00N 50°47' W 009°36'1 1.5
2017-Jun-15 19:29N 50°48' W 009°36'1 1.4
2017-Jun-15 18:57N 50°49' W 009°36'8 1.4
2017-Jun-15 13:06N 50°57' W 009°37'2 1.3
2017-Jun-15 11:47N 50°58' W 009°37'1 1.1
2017-Jun-15 10:58N 50°59' W 009°37'2 3.4
2017-Jun-15 10:18N 50°60' W 009°33'  
Track history (hours):
 
Tides and Currents Weather Stations Pressure Air Temp Water Temp Dewpoint Dewpoint Depression Visibility Wind Speed Wind Dir Waves Ship Positions

Albelo Primero

Last reported at 2017-Jun-24 21:40 UTC. Time now 2017-Jun-25 09:01 UTC.
Position N 50°41' W 010°07'.

Length 32 m; draft 3.5 m.

Type: Fishing. MMSI: 225360000.

Date/timePositionNaut miles runAvg speedWind from/ knotsBaromVisibWave heightAir tempDewpointWater temp
2017-Jun-24 21:40N 50°41' W 010°07'5 1.5
2017-Jun-24 18:27N 50°45' W 010°05'1 1.3
2017-Jun-24 17:54N 50°46' W 010°05'1 1.4
2017-Jun-24 17:31N 50°46' W 010°05'1 1.4
2017-Jun-24 16:59N 50°47' W 010°06'1 1.4
2017-Jun-24 16:30N 50°48' W 010°06'1 1.3
2017-Jun-24 15:59N 50°48' W 010°06'1 1.4
2017-Jun-24 15:29N 50°49' W 010°07'1 1.4
2017-Jun-24 14:35N 50°50' W 010°07'0 1.1
2017-Jun-24 14:25N 50°50' W 010°07'1 1.3
2017-Jun-24 13:22N 50°52' W 010°08'1 1.3
2017-Jun-24 12:51N 50°52' W 010°08'4 1.2
2017-Jun-24 09:43N 50°56' W 010°07'3 1.3
2017-Jun-24 07:34N 50°56' W 010°03'0 0.2
2017-Jun-24 07:00N 50°56' W 010°03'5 0.4
2017-Jun-23 16:13N 50°52' W 009°58'1 1.5
2017-Jun-23 15:33N 50°53' W 009°58'0 1.4
2017-Jun-23 15:30N 50°53' W 009°58'18 1.0
2017-Jun-22 21:19N 50°48' W 009°31'3 1.5
2017-Jun-22 19:18N 50°51' W 009°30'1 1.4
2017-Jun-22 18:24N 50°52' W 009°30'1 1.4
2017-Jun-22 17:50N 50°53' W 009°30'1 1.4
2017-Jun-22 17:23N 50°53' W 009°30'1 1.4
2017-Jun-22 16:59N 50°54' W 009°30'1 1.2
2017-Jun-22 16:23N 50°54' W 009°30'1 1.3
2017-Jun-22 15:56N 50°55' W 009°30'1 1.3
2017-Jun-22 15:30N 50°56' W 009°30'1 1.4
2017-Jun-22 14:59N 50°56' W 009°30'1 1.2
2017-Jun-22 14:27N 50°57' W 009°30'1 1.3
2017-Jun-22 13:28N 50°58' W 009°31'1 1.3
2017-Jun-22 12:50N 50°59' W 009°31'1 1.4
2017-Jun-22 12:25N 50°59' W 009°32'1 1.3
2017-Jun-22 11:58N 50°60' W 009°32'1 1.3
2017-Jun-22 11:30N 51°01' W 009°32'1 1.3
2017-Jun-22 11:00N 51°01' W 009°32'1 1.3
2017-Jun-22 10:29N 51°02' W 009°32'1 1.2
2017-Jun-22 10:01N 51°02' W 009°31'0 0.8
2017-Jun-22 09:29N 51°03' W 009°31'0 0.1
2017-Jun-22 08:40N 51°03' W 009°31'1 5.0
2017-Jun-22 08:30N 51°02' W 009°30'3 5.0
2017-Jun-22 07:56N 50°60' W 009°27'0 0.8
2017-Jun-22 07:30N 50°60' W 009°27'1 0.9
2017-Jun-22 06:56N 51°00' W 009°27'1 0.9
2017-Jun-22 05:35N 51°02' W 009°28'0 1.1
2017-Jun-22 05:30N 51°02' W 009°28'1 1.0
2017-Jun-22 05:00N 51°02' W 009°29'1 1.1
2017-Jun-22 04:29N 51°03' W 009°29'1 1.1
2017-Jun-22 04:00N 51°03' W 009°30'1 1.2
2017-Jun-22 03:30N 51°03' W 009°30'17 3.8
2017-Jun-21 22:58N 50°50' W 009°49'1 1.4
2017-Jun-21 22:12N 50°49' W 009°49'0 1.4
2017-Jun-21 21:51N 50°49' W 009°49'1 1.4
2017-Jun-21 20:50N 50°48' W 009°48'1 1.4
2017-Jun-21 19:56N 50°46' W 009°48'1 1.5
2017-Jun-21 19:28N 50°46' W 009°47'1 1.4
2017-Jun-21 19:00N 50°45' W 009°47'7 6.5
2017-Jun-21 17:54N 50°52' W 009°48'1 1.7
2017-Jun-21 17:08N 50°54' W 009°48'1 1.3
2017-Jun-21 16:44N 50°54' W 009°48'0 1.2
2017-Jun-21 16:30N 50°54' W 009°47'2 1.3
2017-Jun-21 15:11N 50°56' W 009°47'0 1.3
2017-Jun-21 15:01N 50°56' W 009°47'1 1.4
2017-Jun-21 14:27N 50°57' W 009°47'5 1.4
2017-Jun-21 10:26N 51°02' W 009°47'1 1.3
2017-Jun-21 10:00N 51°03' W 009°47'0 0.9
2017-Jun-21 09:28N 51°03' W 009°46'1 2.2
2017-Jun-21 08:50N 51°04' W 009°49'0 0.3
2017-Jun-21 08:30N 51°04' W 009°48'0 0.3
2017-Jun-21 08:00N 51°04' W 009°48'0 0.3
2017-Jun-21 07:29N 51°04' W 009°48'0 0.7
2017-Jun-21 06:58N 51°04' W 009°48'0 0.8
2017-Jun-21 06:27N 51°04' W 009°47'17 6.4
2017-Jun-21 03:52N 50°47' W 009°47'18 4.8
2017-Jun-21 00:13N 51°04' W 009°46'4 2.1
2017-Jun-20 22:10N 51°00' W 009°49'0 0.3
2017-Jun-20 21:59N 51°00' W 009°48'0 0.3
2017-Jun-20 21:19N 51°00' W 009°48'8 3.0
2017-Jun-20 18:41N 51°08' W 009°48'1 7.2
2017-Jun-20 18:30N 51°10' W 009°49'4 7.3
2017-Jun-20 17:58N 51°14' W 009°50'3 7.4
2017-Jun-20 17:30N 51°17' W 009°51'4 7.4
2017-Jun-20 16:59N 51°21' W 009°52'4 7.6
2017-Jun-20 16:30N 51°24' W 009°53'4 7.4
2017-Jun-20 16:00N 51°28' W 009°54'4 7.4
2017-Jun-20 15:30N 51°32' W 009°55'4 7.8
2017-Jun-20 14:57N 51°36' W 009°56'3 3.1
2017-Jun-20 13:55N 51°39' W 009°54'0 0.0
2017-Jun-20 13:15N 51°39' W 009°54'0 0.0
2017-Jun-20 12:59N 51°39' W 009°54'0 0.0
2017-Jun-20 12:28N 51°39' W 009°54'0 0.0
2017-Jun-20 12:00N 51°39' W 009°54'0 0.0
2017-Jun-20 11:30N 51°39' W 009°54'0 0.0
2017-Jun-20 11:00N 51°39' W 009°54'0 0.0
2017-Jun-20 10:30N 51°39' W 009°54'0 0.0
2017-Jun-20 09:46N 51°39' W 009°54'0 0.0
2017-Jun-20 09:24N 51°39' W 009°54'0 0.0
2017-Jun-20 09:00N 51°39' W 009°54'0 0.0
2017-Jun-20 08:24N 51°39' W 009°54'0 0.0
2017-Jun-20 08:00N 51°39' W 009°54'0 0.0
2017-Jun-20 07:30N 51°39' W 009°54'0 0.0
2017-Jun-20 06:58N 51°39' W 009°54'0 0.0
2017-Jun-20 06:26N 51°39' W 009°54'0 0.0
2017-Jun-20 06:00N 51°39' W 009°54'0 0.0
2017-Jun-20 05:28N 51°39' W 009°54'0 0.2
2017-Jun-20 04:59N 51°39' W 009°54'2 3.2
2017-Jun-20 04:22N 51°37' W 009°55'3 7.2
2017-Jun-20 04:00N 51°35' W 009°56'5 9.7
2017-Jun-20 03:30N 51°30' W 009°56'5 9.7
2017-Jun-20 03:00N 51°25' W 009°56'510.0
2017-Jun-20 02:30N 51°20' W 009°56'5 9.9
2017-Jun-20 02:00N 51°15' W 009°56'510.0
2017-Jun-20 01:29N 51°10' W 009°57'510.2
2017-Jun-20 00:56N 51°04' W 009°56'6 7.0
2017-Jun-20 00:02N 50°58' W 009°56'0 1.5
2017-Jun-20 00:00N 50°58' W 009°56'12 1.4
2017-Jun-19 15:08N 50°45' W 009°57'7 1.3
2017-Jun-19 09:55N 50°39' W 009°56'0 0.6
2017-Jun-19 09:22N 50°38' W 009°56'15 2.2
2017-Jun-19 02:20N 50°53' W 009°56'3 8.3
2017-Jun-19 02:00N 50°56' W 009°56'2 4.1
2017-Jun-19 01:31N 50°58' W 009°56'0 0.3
2017-Jun-19 00:58N 50°58' W 009°56'1 3.1
2017-Jun-19 00:30N 50°59' W 009°55'0 0.6
2017-Jun-19 00:00N 50°60' W 009°55'0 0.8
2017-Jun-18 23:31N 50°59' W 009°55'1 1.4
2017-Jun-18 23:00N 50°59' W 009°55'1 1.5
2017-Jun-18 22:30N 50°58' W 009°55'1 1.4
2017-Jun-18 22:01N 50°57' W 009°55'1 1.4
2017-Jun-18 21:30N 50°57' W 009°55'1 1.3
2017-Jun-18 21:00N 50°56' W 009°56'1 1.4
2017-Jun-18 20:31N 50°55' W 009°56'1 1.4
2017-Jun-18 20:01N 50°54' W 009°56'1 1.4
2017-Jun-18 19:30N 50°54' W 009°56'1 1.4
2017-Jun-18 19:00N 50°53' W 009°56'1 1.3
2017-Jun-18 18:31N 50°52' W 009°56'1 1.3
2017-Jun-18 18:00N 50°52' W 009°56'1 1.3
2017-Jun-18 17:30N 50°51' W 009°56'1 1.3
2017-Jun-18 17:00N 50°50' W 009°56'1 1.3
2017-Jun-18 16:30N 50°50' W 009°56'1 1.3
2017-Jun-18 16:00N 50°49' W 009°56'1 1.4
2017-Jun-18 15:30N 50°49' W 009°56'1 1.3
2017-Jun-18 15:00N 50°48' W 009°56'1 1.4
2017-Jun-18 14:00N 50°47' W 009°56'1 1.2
2017-Jun-18 13:31N 50°46' W 009°56'1 1.4
2017-Jun-18 13:00N 50°45' W 009°56'1 1.4
2017-Jun-18 12:30N 50°45' W 009°56'1 1.3
2017-Jun-18 12:00N 50°44' W 009°56'1 1.3
2017-Jun-18 11:31N 50°43' W 009°56'1 1.3
2017-Jun-18 11:01N 50°43' W 009°56'1 1.2
2017-Jun-18 10:31N 50°42' W 009°56'1 1.2
2017-Jun-18 10:01N 50°41' W 009°55'0 0.8
2017-Jun-18 09:31N 50°42' W 009°55'1 1.8
2017-Jun-18 08:54N 50°43' W 009°55'0 0.8
2017-Jun-18 08:30N 50°43' W 009°55'0 0.8
2017-Jun-18 07:59N 50°42' W 009°56'1 0.7
2017-Jun-18 07:09N 50°42' W 009°56'0 0.8
2017-Jun-18 07:00N 50°42' W 009°56'0 0.7
2017-Jun-18 06:30N 50°41' W 009°56'0 0.7
2017-Jun-18 05:58N 50°41' W 009°56'0 0.5
2017-Jun-18 05:30N 50°41' W 009°56'0 0.7
2017-Jun-18 05:00N 50°41' W 009°56'0 0.6
2017-Jun-18 04:30N 50°40' W 009°56'1 1.7
2017-Jun-18 04:00N 50°41' W 009°56'5 8.5
2017-Jun-18 03:24N 50°46' W 009°56'9 9.1
2017-Jun-18 02:24N 50°55' W 009°56'5 9.2
2017-Jun-18 01:53N 51°00' W 009°56'0 0.3
2017-Jun-18 01:30N 51°00' W 009°56'9 3.9
2017-Jun-17 23:16N 50°55' W 010°06'0 0.9
2017-Jun-17 23:01N 50°54' W 010°06'1 1.1
2017-Jun-17 22:28N 50°54' W 010°06'1 1.3
2017-Jun-17 22:00N 50°53' W 010°06'1 1.1
2017-Jun-17 21:30N 50°53' W 010°06'1 1.4
2017-Jun-17 21:00N 50°52' W 010°06'1 1.3
2017-Jun-17 20:30N 50°51' W 010°06'1 1.3
2017-Jun-17 19:56N 50°51' W 010°06'1 1.3
2017-Jun-17 19:30N 50°50' W 010°06'1 1.4
2017-Jun-17 18:55N 50°49' W 010°07'1 1.2
2017-Jun-17 18:14N 50°48' W 010°07'0 1.3
2017-Jun-17 17:54N 50°48' W 010°07'1 1.3
2017-Jun-17 17:30N 50°48' W 010°07'1 1.3
2017-Jun-17 16:58N 50°47' W 010°07'1 1.3
2017-Jun-17 16:30N 50°46' W 010°06'1 1.3
2017-Jun-17 15:54N 50°45' W 010°07'1 1.3
2017-Jun-17 15:30N 50°45' W 010°07'1 1.4
2017-Jun-17 15:01N 50°44' W 010°07'1 1.4
2017-Jun-17 14:15N 50°43' W 010°06'1 1.4
2017-Jun-17 13:17N 50°42' W 010°06'0 1.4
2017-Jun-17 13:00N 50°41' W 010°06'1 1.4
2017-Jun-17 12:27N 50°41' W 010°06'1 1.4
2017-Jun-17 11:57N 50°40' W 010°06'1 1.3
2017-Jun-17 11:30N 50°39' W 010°06'1 1.4
2017-Jun-17 11:00N 50°39' W 010°06'1 1.2
2017-Jun-17 10:29N 50°38' W 010°06'1 1.2
2017-Jun-17 09:51N 50°37' W 010°06'1 1.2
2017-Jun-17 09:26N 50°37' W 010°06'0 0.4
2017-Jun-17 08:58N 50°37' W 010°06'3 6.5
2017-Jun-17 08:29N 50°37' W 010°01'0 0.8
2017-Jun-17 08:00N 50°37' W 010°01'0 1.0
2017-Jun-17 07:30N 50°37' W 010°02'1 1.0
2017-Jun-17 07:00N 50°37' W 010°03'1 1.0
2017-Jun-17 06:28N 50°37' W 010°04'1 0.9
2017-Jun-17 05:53N 50°37' W 010°04'0 0.7
2017-Jun-17 05:25N 50°36' W 010°05'0 0.6
2017-Jun-17 05:00N 50°36' W 010°05'15 5.7
2017-Jun-17 02:25N 50°51' W 010°06'4 8.5
2017-Jun-17 01:57N 50°55' W 010°07'1 2.5
2017-Jun-17 01:30N 50°54' W 010°07'4 7.7
2017-Jun-17 01:00N 50°50' W 010°05'4 7.7
2017-Jun-17 00:30N 50°47' W 010°03'4 7.6
2017-Jun-17 00:00N 50°43' W 010°00'4 7.4
2017-Jun-16 23:30N 50°40' W 009°58'1 1.1
2017-Jun-16 23:00N 50°39' W 009°57'1 1.4
2017-Jun-16 22:17N 50°40' W 009°57'0 1.4
2017-Jun-16 21:58N 50°41' W 009°57'1 1.4
2017-Jun-16 21:13N 50°42' W 009°57'0 1.4
2017-Jun-16 21:01N 50°42' W 009°57'1 1.5
2017-Jun-16 20:29N 50°43' W 009°57'1 1.4
2017-Jun-16 20:00N 50°44' W 009°57'1 1.3
2017-Jun-16 19:27N 50°44' W 009°58'1 1.2
2017-Jun-16 18:33N 50°46' W 009°58'0 1.5
2017-Jun-16 18:30N 50°46' W 009°58'2 1.2
2017-Jun-16 17:15N 50°47' W 009°58'0 1.3
2017-Jun-16 17:00N 50°47' W 009°58'1 1.1
2017-Jun-16 15:56N 50°49' W 009°58'1 1.4
2017-Jun-16 15:20N 50°49' W 009°58'1 1.4
2017-Jun-16 14:51N 50°50' W 009°58'1 1.3
2017-Jun-16 13:52N 50°51' W 009°58'1 1.4
2017-Jun-16 13:29N 50°52' W 009°58'1 1.3
2017-Jun-16 12:57N 50°53' W 009°58'1 1.4
2017-Jun-16 12:30N 50°53' W 009°58'1 1.4
2017-Jun-16 11:52N 50°54' W 009°58'0 1.3
2017-Jun-16 11:30N 50°55' W 009°58'1 1.3
2017-Jun-16 10:54N 50°55' W 009°58'1 1.3
2017-Jun-16 10:28N 50°56' W 009°58'1 1.2
2017-Jun-16 09:51N 50°57' W 009°57'1 1.1
2017-Jun-16 09:13N 50°57' W 009°57'0 0.6
2017-Jun-16 08:46N 50°58' W 009°57'2 6.3
2017-Jun-16 08:30N 50°58' W 009°55'1 1.5
2017-Jun-16 07:59N 50°59' W 009°53'0 0.9
2017-Jun-16 07:31N 50°58' W 009°54'1 0.9
2017-Jun-16 06:54N 50°58' W 009°55'1 0.8
2017-Jun-16 06:06N 50°58' W 009°56'0 0.8
2017-Jun-16 06:00N 50°58' W 009°56'1 0.5
2017-Jun-16 03:59N 50°58' W 009°58'19 9.3
2017-Jun-16 01:57N 50°39' W 009°58'0 0.1
2017-Jun-16 01:30N 50°39' W 009°58'5 5.2
2017-Jun-16 00:33N 50°39' W 009°50'3 6.3
2017-Jun-16 00:04N 50°40' W 009°45'1 6.6
2017-Jun-15 23:57N 50°40' W 009°44'2 5.4
2017-Jun-15 23:30N 50°42' W 009°41'3 4.9
2017-Jun-15 22:50N 50°43' W 009°37'0 1.2
2017-Jun-15 22:30N 50°44' W 009°36'1 1.4
2017-Jun-15 22:00N 50°44' W 009°36'1 1.4
2017-Jun-15 21:21N 50°45' W 009°36'1 1.5
2017-Jun-15 20:49N 50°46' W 009°36'0 1.5
2017-Jun-15 20:30N 50°47' W 009°36'1 1.4
2017-Jun-15 20:00N 50°47' W 009°36'1 1.5
2017-Jun-15 19:29N 50°48' W 009°36'1 1.4
2017-Jun-15 18:57N 50°49' W 009°36'8 1.4
2017-Jun-15 13:06N 50°57' W 009°37'2 1.3
2017-Jun-15 11:47N 50°58' W 009°37'1 1.1
2017-Jun-15 10:58N 50°59' W 009°37'2 3.4
2017-Jun-15 10:18N 50°60' W 009°33'  

Dump ship's entire track history